createdAt,value
2023-04-10T00:00:38.291Z,18.50
2023-04-10T00:03:20.140Z,22.23
2023-04-10T00:05:47.573Z,16.98
2023-04-10T00:08:14.706Z,17.63
2023-04-10T00:10:41.973Z,11.80
2023-04-10T00:13:09.036Z,16.65
2023-04-10T00:15:36.305Z,17.25
2023-04-10T00:18:03.473Z,18.08
2023-04-10T00:20:31.034Z,15.45
2023-04-10T00:22:58.224Z,15.15
2023-04-10T00:25:26.583Z,14.00
2023-04-10T00:27:54.404Z,12.95
2023-04-10T00:30:21.910Z,11.95
2023-04-10T00:32:49.279Z,10.18
2023-04-10T00:35:16.766Z,9.13
2023-04-10T00:37:43.696Z,11.60
2023-04-10T00:40:11.385Z,10.73
2023-04-10T00:42:38.444Z,11.95
2023-04-10T00:45:07.565Z,11.15
2023-04-10T00:47:35.215Z,11.77
2023-04-10T00:50:02.830Z,13.35
2023-04-10T00:52:30.393Z,9.73
2023-04-10T00:54:58.579Z,9.95
2023-04-10T00:57:27.101Z,8.55
2023-04-10T00:59:54.692Z,9.80
2023-04-10T01:02:21.835Z,6.25
2023-04-10T01:04:51.917Z,10.27
2023-04-10T01:07:30.753Z,7.30
2023-04-10T01:10:16.998Z,10.45
2023-04-10T01:12:51.531Z,10.52
2023-04-10T01:15:25.744Z,6.50
2023-04-10T01:18:02.124Z,6.47
2023-04-10T01:20:33.281Z,7.55
2023-04-10T01:23:18.902Z,6.78
2023-04-10T01:25:56.607Z,8.25
2023-04-10T01:28:47.663Z,5.95
2023-04-10T01:31:41.617Z,6.63
2023-04-10T01:34:15.576Z,5.93
2023-04-10T01:37:04.936Z,8.32
2023-04-10T01:39:36.540Z,7.80
2023-04-10T01:42:06.505Z,7.90
2023-04-10T01:44:42.972Z,7.55
2023-04-10T01:47:10.654Z,6.50
2023-04-10T01:50:28.641Z,7.90
2023-04-10T01:52:57.436Z,6.35
2023-04-10T01:55:27.836Z,7.25
2023-04-10T01:58:06.280Z,6.43
2023-04-10T02:00:42.987Z,6.15
2023-04-10T02:03:12.304Z,8.80
2023-04-10T02:05:51.677Z,5.28
2023-04-10T02:08:26.449Z,8.98
2023-04-10T02:11:03.558Z,7.80
2023-04-10T02:13:35.800Z,6.05
2023-04-10T02:16:07.187Z,8.00
2023-04-10T02:18:36.369Z,6.40
2023-04-10T02:21:03.905Z,6.80
2023-04-10T02:23:31.174Z,7.68
2023-04-10T02:25:58.695Z,5.50
2023-04-10T02:28:26.172Z,9.80
2023-04-10T02:30:53.098Z,5.57
2023-04-10T02:33:20.463Z,6.65
2023-04-10T02:35:47.554Z,7.75
2023-04-10T02:38:17.156Z,7.60
2023-04-10T02:40:44.516Z,6.82
2023-04-10T02:43:14.092Z,7.35
2023-04-10T02:45:41.870Z,9.73
2023-04-10T02:48:11.408Z,9.43
2023-04-10T02:50:38.757Z,13.35
2023-04-10T02:53:06.071Z,11.25
2023-04-10T02:55:33.159Z,7.82
2023-04-10T02:58:00.502Z,6.88
2023-04-10T03:00:27.687Z,6.25
2023-04-10T03:03:18.861Z,9.63
2023-04-10T03:05:50.448Z,8.32
2023-04-10T03:08:23.880Z,9.05
2023-04-10T03:10:51.070Z,5.25
2023-04-10T03:13:18.462Z,7.82
2023-04-10T03:15:45.468Z,5.78
2023-04-10T03:18:13.161Z,6.25
2023-04-10T03:20:43.191Z,7.13
2023-04-10T03:23:12.289Z,4.72
2023-04-10T03:25:39.304Z,9.07
2023-04-10T03:28:07.845Z,5.45
2023-04-10T03:30:38.170Z,7.00
2023-04-10T03:33:05.510Z,6.45
2023-04-10T03:35:32.565Z,5.93
2023-04-10T03:38:00.684Z,7.82
2023-04-10T03:40:27.820Z,5.93
2023-04-10T03:42:55.662Z,6.95
2023-04-10T03:45:22.772Z,6.75
2023-04-10T03:47:50.238Z,7.07
2023-04-10T03:50:18.450Z,9.10
2023-04-10T03:52:51.706Z,8.50
2023-04-10T03:55:21.362Z,7.60
2023-04-10T03:57:50.287Z,6.73
2023-04-10T04:00:20.650Z,5.97
2023-04-10T04:02:50.987Z,7.93
2023-04-10T04:05:38.488Z,6.90
2023-04-10T04:08:32.344Z,8.23
2023-04-10T04:11:17.789Z,9.65
2023-04-10T04:16:51.183Z,24.38
2023-04-10T04:19:37.067Z,32.45
2023-04-10T04:22:20.464Z,30.55
2023-04-10T04:25:10.618Z,34.75
2023-04-10T04:28:06.871Z,29.25
2023-04-10T04:30:56.480Z,30.13
2023-04-10T04:33:41.944Z,21.77
2023-04-10T04:36:26.504Z,18.42
2023-04-10T04:39:05.874Z,15.82
2023-04-10T04:41:51.505Z,11.63
2023-04-10T04:44:36.985Z,10.85
2023-04-10T04:47:24.266Z,9.43
2023-04-10T04:50:02.536Z,10.18
2023-04-10T04:52:50.341Z,9.35
2023-04-10T04:55:52.791Z,7.50
2023-04-10T04:58:40.395Z,7.05
2023-04-10T05:01:30.831Z,6.53
2023-04-10T05:04:25.092Z,9.45
2023-04-10T05:06:52.215Z,4.72
2023-04-10T05:09:34.936Z,6.28
2023-04-10T05:12:03.958Z,6.30
2023-04-10T05:14:50.060Z,7.63
2023-04-10T05:17:32.778Z,5.57
2023-04-10T05:20:27.225Z,6.90
2023-04-10T05:23:03.253Z,5.47
2023-04-10T05:25:54.759Z,4.55
2023-04-10T05:28:51.065Z,6.63
2023-04-10T05:31:33.997Z,3.83
2023-04-10T05:34:17.577Z,10.35
2023-04-10T05:37:20.423Z,5.57
2023-04-10T05:39:58.228Z,5.07
2023-04-10T05:42:34.522Z,6.55
2023-04-10T05:45:28.696Z,3.40
2023-04-10T05:47:58.572Z,9.32
2023-04-10T05:50:36.296Z,6.10
2023-04-10T05:53:14.045Z,5.97
2023-04-10T05:56:04.384Z,6.57
2023-04-10T05:58:57.981Z,3.67
2023-04-10T06:01:41.235Z,5.95
2023-04-10T06:04:08.990Z,5.72
2023-04-10T06:06:39.039Z,3.67
2023-04-10T06:09:06.554Z,10.15
2023-04-10T06:11:34.467Z,6.00
2023-04-10T06:14:02.154Z,6.70
2023-04-10T06:16:39.156Z,5.70
2023-04-10T06:19:06.867Z,5.93
2023-04-10T06:21:33.907Z,5.88
2023-04-10T06:24:01.623Z,8.73
2023-04-10T06:26:28.792Z,5.03
2023-04-10T06:28:56.665Z,7.45
2023-04-10T06:31:24.741Z,8.52
2023-04-10T06:33:52.127Z,4.15
2023-04-10T06:36:19.221Z,5.57
2023-04-10T06:38:51.344Z,6.43
2023-04-10T06:41:18.710Z,9.70
2023-04-10T06:43:46.333Z,7.60
2023-04-10T06:46:13.478Z,11.23
2023-04-10T06:48:40.849Z,8.85
2023-04-10T06:51:08.027Z,8.32
2023-04-10T06:53:35.784Z,11.55
2023-04-10T06:56:03.619Z,8.75
2023-04-10T06:58:32.017Z,7.43
2023-04-10T07:03:32.764Z,6.85
2023-04-10T07:06:01.925Z,7.38
2023-04-10T07:08:29.580Z,6.60
2023-04-10T07:10:58.406Z,7.00
2023-04-10T07:13:26.503Z,6.85
2023-04-10T07:15:53.832Z,6.93
2023-04-10T07:18:21.311Z,5.68
2023-04-10T07:20:50.107Z,6.47
2023-04-10T07:23:17.408Z,6.35
2023-04-10T07:25:44.500Z,6.15
2023-04-10T07:28:11.956Z,6.68
2023-04-10T07:30:39.117Z,6.07
2023-04-10T07:33:06.872Z,7.25
2023-04-10T07:35:34.184Z,7.22
2023-04-10T07:38:01.855Z,6.20
2023-04-10T07:40:29.026Z,7.28
2023-04-10T07:42:56.469Z,6.38
2023-04-10T07:45:23.607Z,8.35
2023-04-10T07:47:51.667Z,7.30
2023-04-10T07:50:18.941Z,6.65
2023-04-10T07:52:46.298Z,6.70
2023-04-10T07:55:13.324Z,6.70
2023-04-10T07:57:42.228Z,5.47
2023-04-10T08:00:10.081Z,8.57
2023-04-10T08:02:41.373Z,8.20
2023-04-10T08:05:09.058Z,8.70
2023-04-10T08:07:36.504Z,7.53
2023-04-10T08:10:03.839Z,6.40
2023-04-10T08:12:33.867Z,8.10
2023-04-10T08:15:01.074Z,6.22
2023-04-10T08:17:28.482Z,4.53
2023-04-10T08:19:55.839Z,6.88
2023-04-10T08:22:23.304Z,7.07
2023-04-10T08:24:50.683Z,6.60
2023-04-10T08:27:18.205Z,8.25
2023-04-10T08:29:45.551Z,11.02
2023-04-10T08:32:12.901Z,8.73
2023-04-10T08:34:40.400Z,7.32
2023-04-10T08:37:11.385Z,7.65
2023-04-10T08:39:39.344Z,8.70
2023-04-10T08:42:07.364Z,6.88
2023-04-10T08:44:37.212Z,11.25
2023-04-10T08:47:06.352Z,5.35
2023-04-10T08:49:40.462Z,10.90
2023-04-10T08:52:09.966Z,8.70
2023-04-10T08:54:39.125Z,7.40
2023-04-10T08:57:09.856Z,6.78
2023-04-10T08:59:38.426Z,7.55
2023-04-10T09:02:06.696Z,6.43
2023-04-10T09:04:34.014Z,7.82
2023-04-10T09:07:01.663Z,7.18
2023-04-10T09:12:01.642Z,9.05
2023-04-10T09:14:31.893Z,8.73
2023-04-10T09:17:16.761Z,6.90
2023-04-10T09:19:46.374Z,6.43
2023-04-10T09:22:14.474Z,6.20
2023-04-10T09:24:43.467Z,7.40
2023-04-10T09:27:11.259Z,9.85
2023-04-10T09:29:41.808Z,7.15
2023-04-10T09:32:10.118Z,6.60
2023-04-10T09:34:58.983Z,9.55
2023-04-10T09:37:38.383Z,8.15
2023-04-10T09:40:26.154Z,4.77
2023-04-10T09:42:57.376Z,8.80
2023-04-10T09:45:25.989Z,6.95
2023-04-10T09:48:06.553Z,7.72
2023-04-10T09:50:43.541Z,7.75
2023-04-10T09:53:21.739Z,6.03
2023-04-10T09:55:54.071Z,26.90
2023-04-10T09:58:25.378Z,20.13
2023-04-10T10:00:53.164Z,7.32
2023-04-10T10:03:21.553Z,5.97
2023-04-10T10:05:51.088Z,7.32
2023-04-10T10:08:18.770Z,5.78
2023-04-10T10:10:53.347Z,6.95
2023-04-10T10:13:43.780Z,6.47
2023-04-10T10:16:34.363Z,6.25
2023-04-10T10:19:26.581Z,5.60
2023-04-10T10:21:55.586Z,5.80
2023-04-10T10:24:24.078Z,5.15
2023-04-10T10:26:52.055Z,5.38
2023-04-10T10:29:21.783Z,5.22
2023-04-10T10:31:49.453Z,5.22
2023-04-10T10:34:16.852Z,4.25
2023-04-10T10:36:44.008Z,4.93
2023-04-10T10:39:49.783Z,5.50
2023-04-10T10:42:44.788Z,5.47
2023-04-10T10:45:17.164Z,4.03
2023-04-10T10:47:49.519Z,4.75
2023-04-10T10:50:17.012Z,6.40
2023-04-10T10:52:49.689Z,3.58
2023-04-10T10:55:25.819Z,3.30
2023-04-10T10:57:57.826Z,4.05
2023-04-10T11:00:26.275Z,4.15
2023-04-10T11:03:09.661Z,3.75
2023-04-10T11:05:58.920Z,4.13
2023-04-10T11:08:48.505Z,4.35
2023-04-10T11:14:06.732Z,2.90
2023-04-10T11:16:36.005Z,4.70
2023-04-10T11:19:14.952Z,3.88
2023-04-10T11:22:04.678Z,4.68
2023-04-10T11:24:53.750Z,4.30
2023-04-10T11:27:40.530Z,4.90
2023-04-10T11:30:27.695Z,5.85
2023-04-10T11:32:55.835Z,4.15
2023-04-10T11:35:23.062Z,3.75
2023-04-10T11:37:51.778Z,5.25
2023-04-10T11:40:19.056Z,3.80
2023-04-10T11:42:47.988Z,3.90
2023-04-10T11:45:28.825Z,6.35
2023-04-10T11:47:56.864Z,4.25
2023-04-10T11:50:30.332Z,5.45
2023-04-10T11:52:59.238Z,7.13
2023-04-10T11:55:41.912Z,8.23
2023-04-10T11:58:25.653Z,6.30
2023-04-10T12:00:57.318Z,4.95
2023-04-10T12:03:38.004Z,4.03
2023-04-10T12:06:15.570Z,4.45
2023-04-10T12:08:46.242Z,4.38
2023-04-10T12:11:13.982Z,3.58
2023-04-10T12:13:41.472Z,3.00
2023-04-10T12:16:10.333Z,5.47
2023-04-10T12:18:38.379Z,4.97
2023-04-10T12:21:08.192Z,3.90
2023-04-10T12:23:39.354Z,2.78
2023-04-10T12:26:14.385Z,3.65
2023-04-10T12:28:51.543Z,5.45
2023-04-10T12:31:19.003Z,4.32
2023-04-10T12:33:46.805Z,4.70
2023-04-10T12:36:22.205Z,4.70
2023-04-10T12:38:50.398Z,3.45
2023-04-10T12:41:23.961Z,4.72
2023-04-10T12:43:53.562Z,3.92
2023-04-10T12:46:26.638Z,3.85
2023-04-10T12:48:56.029Z,3.63
2023-04-10T12:52:02.272Z,3.35
2023-04-10T12:54:34.937Z,3.70
2023-04-10T12:57:04.239Z,2.92
2023-04-10T12:59:35.136Z,3.25
2023-04-10T13:02:02.925Z,5.60
2023-04-10T13:04:32.213Z,4.53
2023-04-10T13:06:59.288Z,3.03
2023-04-10T13:09:27.167Z,3.55
2023-04-10T13:11:54.207Z,5.50
2023-04-10T13:14:21.801Z,4.70
2023-04-10T13:16:49.213Z,5.15
2023-04-10T13:19:20.202Z,5.07
2023-04-10T13:21:47.464Z,3.10
2023-04-10T13:24:16.631Z,2.53
2023-04-10T13:26:44.564Z,4.15
2023-04-10T13:29:12.156Z,6.03
2023-04-10T13:31:39.252Z,3.10
2023-04-10T13:34:06.691Z,4.70
2023-04-10T13:36:34.137Z,4.60
2023-04-10T13:39:01.683Z,4.63
2023-04-10T13:41:29.005Z,6.15
2023-04-10T13:43:56.650Z,5.60
2023-04-10T13:46:24.101Z,5.57
2023-04-10T13:48:51.510Z,5.03
2023-04-10T13:51:18.726Z,5.70
2023-04-10T13:53:46.288Z,4.53
2023-04-10T13:56:13.355Z,4.45
2023-04-10T13:58:40.840Z,5.07
2023-04-10T14:01:08.845Z,4.45
2023-04-10T14:03:36.339Z,7.28
2023-04-10T14:06:03.526Z,2.90
2023-04-10T14:08:31.035Z,4.57
2023-04-10T14:10:58.171Z,3.95
2023-04-10T14:13:25.807Z,3.50
2023-04-10T14:15:53.740Z,4.90
2023-04-10T14:18:21.380Z,2.90
2023-04-10T14:20:49.638Z,3.85
2023-04-10T14:23:18.779Z,5.57
2023-04-10T14:25:49.985Z,4.35
2023-04-10T14:28:18.232Z,3.95
2023-04-10T14:30:50.873Z,2.55
2023-04-10T14:33:20.082Z,4.25
2023-04-10T14:35:48.345Z,6.55
2023-04-10T14:38:16.200Z,3.30
2023-04-10T14:40:45.803Z,6.43
2023-04-10T14:43:13.451Z,10.35
2023-04-10T14:45:40.569Z,4.82
2023-04-10T14:48:08.476Z,4.10
2023-04-10T14:50:35.828Z,4.47
2023-04-10T14:53:03.496Z,6.65
2023-04-10T14:55:31.042Z,4.60
2023-04-10T14:57:59.041Z,5.15
2023-04-10T15:00:26.849Z,12.70
2023-04-10T15:02:57.455Z,3.53
2023-04-10T15:05:26.308Z,5.47
2023-04-10T15:07:55.204Z,6.32
2023-04-10T15:10:23.402Z,4.22
2023-04-10T15:12:52.675Z,5.50
2023-04-10T15:15:21.424Z,6.65
2023-04-10T15:17:50.592Z,4.47
2023-04-10T15:20:18.444Z,3.80
2023-04-10T15:22:48.315Z,4.63
2023-04-10T15:25:15.922Z,5.77
2023-04-10T15:27:43.989Z,6.68
2023-04-10T15:30:12.193Z,5.38
2023-04-10T15:32:42.185Z,6.07
2023-04-10T15:35:10.439Z,6.50
2023-04-10T15:37:40.048Z,5.63
2023-04-10T15:40:08.330Z,5.13
2023-04-10T15:42:39.448Z,5.97
2023-04-10T15:45:07.637Z,3.47
2023-04-10T15:47:36.285Z,4.43
2023-04-10T15:50:09.087Z,7.80
2023-04-10T15:52:44.675Z,5.50
2023-04-10T15:55:18.325Z,5.28
2023-04-10T15:58:07.189Z,11.70
2023-04-10T16:00:47.819Z,6.85
2023-04-10T16:03:43.770Z,6.85
2023-04-10T16:06:12.774Z,7.50
2023-04-10T16:08:41.065Z,6.45
2023-04-10T16:11:09.065Z,10.63
2023-04-10T16:13:39.457Z,8.98
2023-04-10T16:16:15.324Z,9.13
2023-04-10T16:18:45.816Z,6.03
2023-04-10T16:21:17.649Z,7.50
2023-04-10T16:23:46.823Z,6.35
2023-04-10T16:26:15.066Z,7.30
2023-04-10T16:28:43.907Z,7.93
2023-04-10T16:31:13.330Z,10.63
2023-04-10T16:33:43.513Z,11.30
2023-04-10T16:36:11.868Z,14.43
2023-04-10T16:38:40.472Z,14.98
2023-04-10T16:41:10.429Z,11.57
2023-04-10T16:43:38.329Z,8.27
2023-04-10T16:46:06.302Z,8.35
2023-04-10T16:48:36.219Z,8.43
2023-04-10T16:51:07.146Z,9.18
2023-04-10T16:53:36.352Z,8.52
2023-04-10T16:56:05.091Z,9.18
2023-04-10T16:58:36.112Z,6.22
2023-04-10T17:01:18.364Z,6.72
2023-04-10T17:03:48.703Z,9.68
2023-04-10T17:06:17.697Z,9.00
2023-04-10T17:08:46.235Z,10.27
2023-04-10T17:11:14.266Z,8.00
2023-04-10T17:13:42.724Z,10.77
2023-04-10T17:16:10.717Z,8.02
2023-04-10T17:18:38.846Z,8.10
2023-04-10T17:21:10.862Z,9.10
2023-04-10T17:23:39.577Z,10.60
2023-04-10T17:26:13.431Z,8.43
2023-04-10T17:28:46.994Z,7.18
2023-04-10T17:31:16.142Z,10.73
2023-04-10T17:33:44.168Z,7.05
2023-04-10T17:36:13.252Z,8.75
2023-04-10T17:38:42.849Z,11.38
2023-04-10T17:41:15.159Z,11.25
2023-04-10T17:43:43.124Z,10.60
2023-04-10T17:46:17.405Z,9.23
2023-04-10T17:48:45.960Z,14.82
2023-04-10T17:51:14.713Z,10.88
2023-04-10T17:53:44.062Z,10.05
2023-04-10T17:56:23.932Z,9.70
2023-04-10T17:58:56.789Z,13.63
2023-04-10T18:01:31.223Z,9.73
2023-04-10T18:03:59.883Z,10.25
2023-04-10T18:06:27.782Z,10.50
2023-04-10T18:08:57.191Z,14.80
2023-04-10T18:11:25.608Z,9.32
2023-04-10T18:13:54.037Z,13.70
2023-04-10T18:16:22.028Z,22.17
2023-04-10T18:18:50.542Z,21.15
2023-04-10T18:21:18.895Z,20.00
2023-04-10T18:23:47.219Z,25.33
2023-04-10T18:26:15.057Z,19.40
2023-04-10T18:28:43.739Z,22.42
2023-04-10T18:31:15.154Z,28.02
2023-04-10T18:33:43.509Z,21.13
2023-04-10T18:36:11.390Z,18.73
2023-04-10T18:38:47.886Z,23.52
2023-04-10T18:41:15.976Z,26.02
2023-04-10T18:43:48.857Z,21.80
2023-04-10T18:46:28.292Z,21.15
2023-04-10T18:48:58.435Z,21.02
2023-04-10T18:51:42.055Z,20.70
2023-04-10T18:54:12.684Z,20.98
2023-04-10T18:56:40.551Z,22.33
2023-04-10T18:59:08.512Z,21.88
2023-04-10T19:01:36.792Z,24.17
2023-04-10T19:04:06.614Z,20.40
2023-04-10T19:06:37.128Z,21.33
2023-04-10T19:09:05.521Z,20.67
2023-04-10T19:11:33.280Z,21.50
2023-04-10T19:14:01.555Z,19.25
2023-04-10T19:16:30.336Z,17.42
2023-04-10T19:18:58.871Z,18.35
2023-04-10T19:21:27.866Z,47.30
2023-04-10T19:23:56.713Z,71.22
2023-04-10T19:26:24.466Z,91.75
2023-04-10T19:28:52.401Z,99.32
2023-04-10T19:31:21.085Z,95.43
2023-04-10T19:33:52.143Z,100.35
2023-04-10T19:36:20.946Z,95.50
2023-04-10T19:41:19.027Z,75.35
2023-04-10T19:43:47.413Z,61.72
2023-04-10T19:46:21.663Z,55.42
2023-04-10T19:48:49.736Z,50.55
2023-04-10T19:51:17.668Z,34.78
2023-04-10T19:53:46.197Z,88.47
2023-04-10T19:56:16.495Z,113.75
2023-04-10T19:58:46.946Z,142.75
2023-04-10T20:01:14.796Z,92.07
2023-04-10T20:03:43.188Z,49.75
2023-04-10T20:06:10.860Z,28.40
2023-04-10T20:08:38.688Z,26.15
2023-04-10T20:11:06.684Z,20.90
2023-04-10T20:13:35.573Z,18.50
2023-04-10T20:16:03.175Z,21.10
2023-04-10T20:18:32.128Z,21.83
2023-04-10T20:21:00.016Z,23.77
2023-04-10T20:23:28.228Z,21.90
2023-04-10T20:25:56.088Z,17.05
2023-04-10T20:28:24.735Z,17.40
2023-04-10T20:30:52.461Z,17.70
2023-04-10T20:33:20.548Z,16.15
2023-04-10T20:35:50.716Z,19.70
2023-04-10T20:38:19.507Z,17.85
2023-04-10T20:40:47.612Z,12.30
2023-04-10T20:43:15.653Z,17.30
2023-04-10T20:45:43.127Z,19.85
2023-04-10T20:48:11.365Z,17.58
2023-04-10T20:50:52.350Z,16.17
2023-04-10T20:53:20.628Z,20.35
2023-04-10T20:55:51.556Z,18.55
2023-04-10T20:58:19.256Z,21.92
2023-04-10T21:00:47.096Z,19.90
2023-04-10T21:03:15.891Z,22.95
2023-04-10T21:05:43.638Z,22.98
2023-04-10T21:08:12.636Z,29.25
2023-04-10T21:10:46.169Z,22.98
2023-04-10T21:13:15.358Z,23.20
2023-04-10T21:15:43.495Z,24.27
2023-04-10T21:18:11.458Z,25.63
2023-04-10T21:20:38.848Z,16.77
2023-04-10T21:23:06.539Z,22.52
2023-04-10T21:25:35.964Z,21.73
2023-04-10T21:28:03.783Z,39.70
2023-04-10T21:30:31.829Z,34.47
2023-04-10T21:33:00.100Z,27.73
2023-04-10T21:35:27.962Z,25.88
2023-04-10T21:37:58.903Z,22.40
2023-04-10T21:40:34.144Z,33.60
2023-04-10T21:43:02.971Z,19.13
2023-04-10T21:45:31.064Z,27.05
2023-04-10T21:48:00.544Z,28.13
2023-04-10T21:50:27.782Z,30.38
2023-04-10T21:52:55.264Z,38.42
2023-04-10T21:55:22.679Z,28.85
2023-04-10T21:57:50.239Z,39.78
2023-04-10T22:00:17.559Z,37.33
2023-04-10T22:02:45.287Z,26.95
2023-04-10T22:05:14.063Z,31.45
2023-04-10T22:07:41.657Z,25.83
2023-04-10T22:10:09.364Z,29.52
2023-04-10T22:12:36.886Z,23.92
2023-04-10T22:15:04.378Z,18.65
2023-04-10T22:17:31.748Z,15.35
2023-04-10T22:19:58.964Z,15.82
2023-04-10T22:22:26.529Z,15.65
2023-04-10T22:24:53.613Z,15.00
2023-04-10T22:27:20.943Z,16.02
2023-04-10T22:29:59.954Z,15.50
2023-04-10T22:32:30.526Z,18.80
2023-04-10T22:34:59.081Z,16.45
2023-04-10T22:37:27.064Z,15.50
2023-04-10T22:39:56.235Z,13.10
2023-04-10T22:42:24.074Z,15.45
2023-04-10T22:44:51.129Z,15.27
2023-04-10T22:47:18.585Z,18.88
2023-04-10T22:49:46.052Z,16.75
2023-04-10T22:52:13.647Z,21.63
2023-04-10T22:54:40.674Z,26.70
2023-04-10T22:57:08.407Z,20.35
2023-04-10T22:59:36.907Z,25.75
2023-04-10T23:02:04.499Z,20.48
2023-04-10T23:04:31.929Z,24.02
2023-04-10T23:06:59.503Z,27.65
2023-04-10T23:09:26.637Z,18.02
2023-04-10T23:11:53.994Z,20.17
2023-04-10T23:14:21.107Z,17.17
2023-04-10T23:16:49.581Z,18.98
2023-04-10T23:19:18.365Z,18.02
2023-04-10T23:21:45.791Z,18.40
2023-04-10T23:24:12.866Z,18.13
2023-04-10T23:26:40.244Z,16.25
2023-04-10T23:29:07.225Z,17.80
2023-04-10T23:31:34.536Z,24.38
2023-04-10T23:34:26.809Z,29.25
2023-04-10T23:36:54.576Z,26.90
2023-04-10T23:39:21.967Z,27.77
2023-04-10T23:41:49.270Z,23.70
2023-04-10T23:44:16.336Z,35.67
2023-04-10T23:46:43.654Z,29.92
2023-04-10T23:49:10.812Z,25.25
2023-04-10T23:51:38.064Z,27.27
2023-04-10T23:54:05.602Z,25.85
2023-04-10T23:56:32.906Z,27.10
2023-04-10T23:58:59.911Z,27.65
